Decoded Metar for YPPH (PERTH in AUSTRALIA) (IATA:PER) | Meteo·Mobile Aviation Weather
aviador You're here:

YPPH Decoded Metar

PERTH in AUSTRALIA
Report Time2018-09-23 12:00:00
UTC Time2018-09-23 12:16:26
Flight Rules vfr VFR
Wind260° at 06 kt
W.Decomp.*RWY 24: 5.6 kt HW 2.2 kt RCW
RWY 21: 3.7 kt HW 4.7 kt RCW
W.Rank260° ranks 21
Current wind is below 260° avg. (10.3)
Visibility9999 m
Phenomena:N/A
Clouds:N/A
Expected CloudBase > 2,000 ft AGL from Temp-Dew spread
CeilingNone
Temp17°C (ISA +2)
Dew Point12°C (73% RH)
AAT15.5°C
QNH1020 hPa
Density Alt240 ft
Elevation43 ft
Report Wrong Elevation
Raw Report
METAR YPPH 231200Z 26006KT CAVOK 17/12 Q1020
NOSIG=

Extra information for YPPH:More info

Metar Taf Metar & Taf Last 4 Metars F.Rules Stats Wind Profile Meteogram Temp Stats Airport Information Weather charts Add Link Nearby VenuesMetar ALERT Operation Metar Decoded Social comments